createdAt,value
2017-10-15T00:01:28.809Z,102364.77
2017-10-15T00:03:56.507Z,102361.39
2017-10-15T00:06:24.163Z,102362.74
2017-10-15T00:08:51.866Z,102360.58
2017-10-15T00:11:19.519Z,102362.39
2017-10-15T00:13:47.182Z,102360.72
2017-10-15T00:16:14.899Z,102368.15
2017-10-15T00:18:42.554Z,102372.23
2017-10-15T00:21:10.238Z,102360.42
2017-10-15T00:23:37.889Z,102354.09
2017-10-15T00:26:05.579Z,102355.40
2017-10-15T00:28:33.267Z,102352.66
2017-10-15T00:31:00.964Z,102353.95
2017-10-15T00:33:28.623Z,102352.27
2017-10-15T00:35:56.322Z,102351.11
2017-10-15T00:38:23.966Z,102351.40
2017-10-15T00:40:51.654Z,102352.73
2017-10-15T00:43:19.291Z,102338.86
2017-10-15T00:45:46.976Z,102336.16
2017-10-15T00:48:14.631Z,102333.98
2017-10-15T00:50:42.307Z,102341.53
2017-10-15T00:53:09.955Z,102340.07
2017-10-15T00:55:37.643Z,102337.47
2017-10-15T00:58:05.230Z,102333.47
2017-10-15T01:00:32.892Z,102340.28
2017-10-15T01:03:00.479Z,102338.44
2017-10-15T01:05:28.153Z,102338.39
2017-10-15T01:07:55.829Z,102332.77
2017-10-15T01:10:23.533Z,102328.75
2017-10-15T01:12:51.217Z,102328.18
2017-10-15T01:15:18.852Z,102332.02
2017-10-15T01:17:46.466Z,102333.39
2017-10-15T01:20:14.130Z,102346.23
2017-10-15T01:22:41.806Z,102348.81
2017-10-15T01:25:09.457Z,102343.38
2017-10-15T01:27:37.090Z,102335.94
2017-10-15T01:30:04.774Z,102338.95
2017-10-15T01:32:32.469Z,102330.77
2017-10-15T01:35:00.086Z,102335.20
2017-10-15T01:37:27.802Z,102336.01
2017-10-15T01:39:55.476Z,102337.61
2017-10-15T01:42:23.170Z,102330.17
2017-10-15T01:44:50.864Z,102334.87
2017-10-15T01:47:18.583Z,102325.45
2017-10-15T01:49:46.253Z,102327.78
2017-10-15T01:52:13.934Z,102321.77
2017-10-15T01:54:41.601Z,102326.91
2017-10-15T01:57:09.303Z,102325.59
2017-10-15T01:59:36.888Z,102325.55
2017-10-15T02:02:04.593Z,102324.83
2017-10-15T02:04:32.283Z,102319.66
2017-10-15T02:06:59.935Z,102323.27
2017-10-15T02:09:27.618Z,102333.91
2017-10-15T02:11:55.293Z,102336.31
2017-10-15T02:14:22.979Z,102342.55
2017-10-15T02:16:50.672Z,102344.83
2017-10-15T02:19:18.347Z,102344.86
2017-10-15T02:21:46.003Z,102338.42
2017-10-15T02:24:13.690Z,102340.09
2017-10-15T02:26:41.349Z,102339.31
2017-10-15T02:29:09.041Z,102346.23
2017-10-15T02:31:36.703Z,102353.31
2017-10-15T02:34:04.383Z,102353.70
2017-10-15T02:36:31.987Z,102357.20
2017-10-15T02:38:59.617Z,102351.80
2017-10-15T02:41:27.227Z,102358.24
2017-10-15T02:43:54.878Z,102357.45
2017-10-15T02:46:22.506Z,102359.95
2017-10-15T02:48:50.160Z,102349.72
2017-10-15T02:51:17.753Z,102351.98
2017-10-15T02:53:45.382Z,102350.94
2017-10-15T02:56:13.053Z,102351.53
2017-10-15T02:58:40.696Z,102348.34
2017-10-15T03:01:08.286Z,102352.11
2017-10-15T03:03:35.987Z,102353.53
2017-10-15T03:06:03.586Z,102355.93
2017-10-15T03:08:31.178Z,102364.75
2017-10-15T03:10:58.795Z,102371.48
2017-10-15T03:13:26.390Z,102364.50
2017-10-15T03:15:54.012Z,102363.11
2017-10-15T03:18:21.615Z,102369.78
2017-10-15T03:20:49.242Z,102370.77
2017-10-15T03:23:16.827Z,102364.88
2017-10-15T03:25:44.445Z,102360.96
2017-10-15T03:28:12.051Z,102361.38
2017-10-15T03:30:39.663Z,102364.17
2017-10-15T03:33:07.313Z,102358.33
2017-10-15T03:35:34.958Z,102355.44
2017-10-15T03:38:02.560Z,102367.61
2017-10-15T03:40:30.262Z,102363.44
2017-10-15T03:42:57.957Z,102365.44
2017-10-15T03:45:25.644Z,102365.83
2017-10-15T03:47:53.290Z,102357.33
2017-10-15T03:50:20.968Z,102362.55
2017-10-15T03:52:48.669Z,102358.70
2017-10-15T03:55:16.287Z,102361.52
2017-10-15T03:57:43.967Z,102363.93
2017-10-15T04:00:11.639Z,102364.78
2017-10-15T04:02:39.267Z,102375.84
2017-10-15T04:05:06.905Z,102378.52
2017-10-15T04:07:34.605Z,102376.84
2017-10-15T04:10:02.274Z,102369.60
2017-10-15T04:12:29.950Z,102375.80
2017-10-15T04:14:57.627Z,102376.67
2017-10-15T04:17:25.272Z,102368.72
2017-10-15T04:19:52.957Z,102377.84
2017-10-15T04:22:20.682Z,102381.12
2017-10-15T04:24:48.274Z,102387.45
2017-10-15T04:27:15.981Z,102384.67
2017-10-15T04:29:43.621Z,102384.01
2017-10-15T04:32:11.265Z,102385.56
2017-10-15T04:34:38.913Z,102393.25
2017-10-15T04:37:06.561Z,102393.38
2017-10-15T04:39:34.217Z,102391.27
2017-10-15T04:42:01.900Z,102393.91
2017-10-15T04:44:29.614Z,102393.06
2017-10-15T04:46:57.268Z,102390.99
2017-10-15T04:49:24.944Z,102390.16
2017-10-15T04:51:52.596Z,102392.95
2017-10-15T04:54:20.279Z,102386.12
2017-10-15T04:56:47.938Z,102391.02
2017-10-15T04:59:15.613Z,102389.75
2017-10-15T05:01:43.255Z,102396.59
2017-10-15T05:04:10.939Z,102395.33
2017-10-15T05:06:38.614Z,102393.52
2017-10-15T05:09:06.292Z,102396.61
2017-10-15T05:11:33.950Z,102397.59
2017-10-15T05:14:01.646Z,102397.59
2017-10-15T05:16:30.298Z,102396.91
2017-10-15T05:18:57.989Z,102386.98
2017-10-15T05:21:25.674Z,102384.62
2017-10-15T05:23:53.349Z,102389.09
2017-10-15T05:26:21.014Z,102398.16
2017-10-15T05:28:48.711Z,102399.55
2017-10-15T05:31:16.290Z,102396.45
2017-10-15T05:33:43.998Z,102402.98
2017-10-15T05:36:11.669Z,102401.70
2017-10-15T05:38:39.255Z,102406.98
2017-10-15T05:41:06.926Z,102396.41
2017-10-15T05:43:34.583Z,102397.43
2017-10-15T05:46:02.202Z,102394.10
2017-10-15T05:48:30.666Z,102395.66
2017-10-15T05:50:58.348Z,102396.63
2017-10-15T05:53:26.009Z,102396.75
2017-10-15T05:55:53.665Z,102396.45
2017-10-15T05:58:21.248Z,102395.31
2017-10-15T06:00:48.918Z,102397.13
2017-10-15T06:03:16.561Z,102394.25
2017-10-15T06:05:44.259Z,102390.47
2017-10-15T06:08:11.843Z,102390.64
2017-10-15T06:10:39.466Z,102392.72
2017-10-15T06:13:07.071Z,102392.05
2017-10-15T06:15:34.690Z,102394.41
2017-10-15T06:18:02.275Z,102398.98
2017-10-15T06:20:29.909Z,102393.41
2017-10-15T06:22:57.518Z,102393.02
2017-10-15T06:25:25.140Z,102401.92
2017-10-15T06:27:52.734Z,102401.64
2017-10-15T06:30:20.362Z,102404.13
2017-10-15T06:32:47.956Z,102406.66
2017-10-15T06:35:15.549Z,102410.13
2017-10-15T06:37:43.181Z,102411.39
2017-10-15T06:40:10.773Z,102414.01
2017-10-15T06:42:38.406Z,102416.95
2017-10-15T06:45:06.001Z,102418.47
2017-10-15T06:47:33.619Z,102420.41
2017-10-15T06:50:01.226Z,102419.54
2017-10-15T06:52:28.855Z,102425.77
2017-10-15T06:54:56.454Z,102424.23
2017-10-15T06:57:24.194Z,102416.08
2017-10-15T06:59:51.794Z,102425.36
2017-10-15T07:02:19.467Z,102425.63
2017-10-15T07:04:47.122Z,102425.16
2017-10-15T07:07:14.813Z,102423.87
2017-10-15T07:09:42.488Z,102418.47
2017-10-15T07:12:10.168Z,102415.75
2017-10-15T07:14:37.826Z,102426.75
2017-10-15T07:17:05.565Z,102425.64
2017-10-15T07:19:33.221Z,102418.24
2017-10-15T07:22:00.919Z,102424.55
2017-10-15T07:24:28.519Z,102419.34
2017-10-15T07:26:56.214Z,102424.54
2017-10-15T07:29:23.859Z,102424.53
2017-10-15T07:31:51.551Z,102425.91
2017-10-15T07:34:19.197Z,102416.22
2017-10-15T07:36:46.937Z,102414.80
2017-10-15T07:39:14.615Z,102415.14
2017-10-15T07:41:42.294Z,102410.28
2017-10-15T07:44:09.983Z,102421.62
2017-10-15T07:46:37.634Z,102411.20
2017-10-15T07:49:05.327Z,102410.48
2017-10-15T07:51:32.936Z,102408.66
2017-10-15T07:54:00.636Z,102404.34
2017-10-15T07:56:28.314Z,102405.30
2017-10-15T07:58:56.002Z,102401.47
2017-10-15T08:01:23.656Z,102400.96
2017-10-15T08:03:51.334Z,102403.58
2017-10-15T08:06:19.009Z,102404.98
2017-10-15T08:08:46.643Z,102401.41
2017-10-15T08:11:14.323Z,102398.50
2017-10-15T08:13:42.007Z,102405.20
2017-10-15T08:16:10.519Z,102400.09
2017-10-15T08:18:38.261Z,102406.70
2017-10-15T08:21:05.964Z,102402.81
2017-10-15T08:23:33.651Z,102402.49
2017-10-15T08:26:01.366Z,102403.94
2017-10-15T08:28:28.984Z,102392.40
2017-10-15T08:30:56.641Z,102393.62
2017-10-15T08:33:24.330Z,102394.93
2017-10-15T08:35:51.978Z,102394.80
2017-10-15T08:38:19.685Z,102396.02
2017-10-15T08:40:47.341Z,102399.44
2017-10-15T08:43:14.938Z,102391.55
2017-10-15T08:45:42.577Z,102398.64
2017-10-15T08:48:10.238Z,102391.84
2017-10-15T08:50:37.926Z,102389.69
2017-10-15T08:53:05.576Z,102386.33
2017-10-15T08:55:33.269Z,102387.45
2017-10-15T08:58:00.855Z,102383.84
2017-10-15T09:00:28.535Z,102380.75
2017-10-15T09:02:56.118Z,102380.20
2017-10-15T09:05:23.816Z,102381.88
2017-10-15T09:07:51.512Z,102375.69
2017-10-15T09:10:19.223Z,102384.28
2017-10-15T09:12:46.880Z,102380.71
2017-10-15T09:15:14.564Z,102383.38
2017-10-15T09:17:42.258Z,102381.33
2017-10-15T09:20:09.980Z,102381.81
2017-10-15T09:22:37.639Z,102373.05
2017-10-15T09:25:05.337Z,102374.16
2017-10-15T09:27:40.865Z,102370.77
2017-10-15T09:30:08.571Z,102372.17
2017-10-15T09:32:36.291Z,102368.59
2017-10-15T09:35:03.970Z,102360.56
2017-10-15T09:37:31.633Z,102355.82
2017-10-15T09:39:59.287Z,102345.14
2017-10-15T09:42:26.943Z,102348.55
2017-10-15T09:44:54.623Z,102338.17
2017-10-15T09:47:22.280Z,102334.44
2017-10-15T09:49:49.931Z,102339.83
2017-10-15T09:52:17.635Z,102334.66
2017-10-15T09:54:45.296Z,102330.34
2017-10-15T09:57:13.007Z,102324.40
2017-10-15T09:59:40.661Z,102324.72
2017-10-15T10:02:08.344Z,102330.52
2017-10-15T10:04:35.991Z,102322.64
2017-10-15T10:07:03.677Z,102319.05
2017-10-15T10:09:31.331Z,102318.63
2017-10-15T10:11:59.019Z,102314.08
2017-10-15T10:14:26.694Z,102319.55
2017-10-15T10:16:54.414Z,102313.33
2017-10-15T10:19:22.055Z,102307.94
2017-10-15T10:21:49.768Z,102304.09
2017-10-15T10:24:17.426Z,102299.47
2017-10-15T10:26:45.102Z,102294.13
2017-10-15T10:29:12.797Z,102293.02
2017-10-15T10:31:40.566Z,102285.07
2017-10-15T10:34:08.253Z,102287.71
2017-10-15T10:36:35.941Z,102291.88
2017-10-15T10:39:03.613Z,102287.73
2017-10-15T10:41:31.217Z,102277.80
2017-10-15T10:43:58.910Z,102282.51
2017-10-15T10:46:26.564Z,102277.19
2017-10-15T10:48:54.261Z,102269.34
2017-10-15T10:51:21.938Z,102266.55
2017-10-15T10:53:49.663Z,102261.74
2017-10-15T10:56:17.345Z,102260.72
2017-10-15T10:58:45.050Z,102254.61
2017-10-15T11:01:12.707Z,102251.83
2017-10-15T11:03:40.406Z,102251.47
2017-10-15T11:06:08.088Z,102251.09
2017-10-15T11:08:35.771Z,102252.78
2017-10-15T11:11:03.448Z,102240.57
2017-10-15T11:13:32.007Z,102243.71
2017-10-15T11:16:00.528Z,102239.17
2017-10-15T11:18:28.232Z,102232.72
2017-10-15T11:20:55.917Z,102229.84
2017-10-15T11:23:23.624Z,102228.84
2017-10-15T11:25:51.302Z,102220.83
2017-10-15T11:28:18.937Z,102216.69
2017-10-15T11:30:46.594Z,102217.27
2017-10-15T11:33:14.280Z,102212.21
2017-10-15T11:35:41.957Z,102207.09
2017-10-15T11:38:09.643Z,102207.09
2017-10-15T11:40:37.295Z,102204.73
2017-10-15T11:43:04.949Z,102206.75
2017-10-15T11:45:32.643Z,102205.25
2017-10-15T11:48:00.308Z,102199.23
2017-10-15T11:50:27.993Z,102193.89
2017-10-15T11:52:55.679Z,102191.99
2017-10-15T11:55:23.397Z,102185.27
2017-10-15T11:57:51.071Z,102186.97
2017-10-15T12:00:18.773Z,102189.58
2017-10-15T12:02:46.436Z,102177.42
2017-10-15T12:05:14.125Z,102179.67
2017-10-15T12:07:41.803Z,102179.08
2017-10-15T12:10:09.489Z,102171.92
2017-10-15T12:12:37.166Z,102163.48
2017-10-15T12:15:04.873Z,102155.87
2017-10-15T12:17:33.402Z,102155.77
2017-10-15T12:20:01.085Z,102156.70
2017-10-15T12:22:28.744Z,102157.53
2017-10-15T12:24:56.372Z,102157.64
2017-10-15T12:27:24.053Z,102148.66
2017-10-15T12:29:51.743Z,102139.75
2017-10-15T12:32:19.429Z,102152.73
2017-10-15T12:34:47.145Z,102145.16
2017-10-15T12:37:14.838Z,102143.53
2017-10-15T12:39:42.538Z,102130.99
2017-10-15T12:42:10.660Z,102139.86
2017-10-15T12:44:38.318Z,102135.36
2017-10-15T12:47:06.025Z,102129.89
2017-10-15T12:49:33.683Z,102130.08
2017-10-15T12:52:01.540Z,102128.08
2017-10-15T12:54:29.214Z,102129.04
2017-10-15T12:56:57.218Z,102127.83
2017-10-15T12:59:24.877Z,102121.16
2017-10-15T13:01:52.572Z,102128.23
2017-10-15T13:04:20.238Z,102121.48
2017-10-15T13:06:47.928Z,102114.57
2017-10-15T13:09:15.578Z,102114.23
2017-10-15T13:11:43.266Z,102115.11
2017-10-15T13:14:10.929Z,102102.72
2017-10-15T13:16:38.684Z,102105.81
2017-10-15T13:19:06.364Z,102109.86
2017-10-15T13:21:34.065Z,102108.94
2017-10-15T13:24:01.751Z,102102.44
2017-10-15T13:26:29.427Z,102100.52
2017-10-15T13:28:57.108Z,102099.73
2017-10-15T13:31:24.786Z,102100.06
2017-10-15T13:33:52.442Z,102095.64
2017-10-15T13:36:20.187Z,102097.89
2017-10-15T13:38:47.853Z,102100.77
2017-10-15T13:41:15.515Z,102098.81
2017-10-15T13:43:43.196Z,102098.47
2017-10-15T13:46:10.858Z,102094.35
2017-10-15T13:48:38.536Z,102092.69
2017-10-15T13:51:06.195Z,102089.72
2017-10-15T13:53:33.884Z,102087.18
2017-10-15T13:56:01.557Z,102086.39
2017-10-15T13:58:29.272Z,102085.84
2017-10-15T14:00:56.970Z,102079.05
2017-10-15T14:03:24.641Z,102072.38
2017-10-15T14:05:52.320Z,102071.34
2017-10-15T14:08:20.037Z,102069.59
2017-10-15T14:10:47.693Z,102066.17
2017-10-15T14:13:15.304Z,102068.59
2017-10-15T14:15:43.980Z,102062.84
2017-10-15T14:18:11.701Z,102062.76
2017-10-15T14:20:39.361Z,102055.88
2017-10-15T14:23:07.060Z,102056.55
2017-10-15T14:25:34.726Z,102054.59
2017-10-15T14:28:02.449Z,102047.34
2017-10-15T14:30:30.142Z,102042.93
2017-10-15T14:32:57.823Z,102043.47
2017-10-15T14:35:25.505Z,102045.59
2017-10-15T14:37:53.211Z,102037.92
2017-10-15T14:40:20.870Z,102040.47
2017-10-15T14:42:48.455Z,102037.22
2017-10-15T14:45:16.154Z,102035.88
2017-10-15T14:47:43.802Z,102028.80
2017-10-15T14:50:11.522Z,102025.67
2017-10-15T14:52:39.250Z,102026.75
2017-10-15T14:55:07.219Z,102027.46
2017-10-15T14:57:34.891Z,102023.09
2017-10-15T15:00:02.567Z,102021.00
2017-10-15T15:02:30.265Z,102016.20
2017-10-15T15:04:57.963Z,102020.41
2017-10-15T15:07:25.668Z,102023.90
2017-10-15T15:09:53.360Z,102013.18
2017-10-15T15:12:21.071Z,102015.67
2017-10-15T15:14:48.815Z,102019.25
2017-10-15T15:17:17.323Z,102018.91
2017-10-15T15:19:45.019Z,102015.10
2017-10-15T15:22:12.706Z,102017.38
2017-10-15T15:24:40.672Z,102012.63
2017-10-15T15:27:08.366Z,102011.19
2017-10-15T15:29:35.959Z,102020.70
2017-10-15T15:32:03.662Z,102007.27
2017-10-15T15:34:31.335Z,102009.62
2017-10-15T15:36:59.022Z,102011.16
2017-10-15T15:39:26.679Z,102006.73
2017-10-15T15:41:54.385Z,102010.97
2017-10-15T15:44:22.040Z,102006.87
2017-10-15T15:46:49.741Z,102008.81
2017-10-15T15:49:17.423Z,102006.27
2017-10-15T15:51:45.182Z,102004.17
2017-10-15T15:54:12.862Z,101999.78
2017-10-15T15:56:40.601Z,101998.13
2017-10-15T15:59:08.269Z,102001.68
2017-10-15T16:01:35.943Z,102000.79
2017-10-15T16:04:03.591Z,102003.13
2017-10-15T16:06:31.278Z,102002.39
2017-10-15T16:08:58.935Z,102000.97
2017-10-15T16:11:26.628Z,101996.81
2017-10-15T16:13:54.330Z,101996.14
2017-10-15T16:16:23.034Z,101994.90
2017-10-15T16:18:50.636Z,101993.38
2017-10-15T16:21:18.330Z,101995.03
2017-10-15T16:23:45.973Z,101994.50
2017-10-15T16:26:13.644Z,101991.72
2017-10-15T16:28:41.324Z,101988.52
2017-10-15T16:31:08.967Z,101996.25
2017-10-15T16:33:36.686Z,102003.45
2017-10-15T16:36:04.350Z,102009.19
2017-10-15T16:38:32.095Z,102006.41
2017-10-15T16:40:59.758Z,102009.69
2017-10-15T16:43:27.433Z,102012.27
2017-10-15T16:45:55.082Z,102010.30
2017-10-15T16:48:22.778Z,102018.41
2017-10-15T16:50:50.437Z,102018.45
2017-10-15T16:53:18.126Z,102018.70
2017-10-15T16:55:45.775Z,102019.92
2017-10-15T16:58:13.474Z,102024.36
2017-10-15T17:00:41.106Z,102032.39
2017-10-15T17:03:08.824Z,102031.62
2017-10-15T17:05:36.481Z,102031.88
2017-10-15T17:08:04.202Z,102034.48
2017-10-15T17:10:31.866Z,102031.79
2017-10-15T17:12:59.543Z,102037.40
2017-10-15T17:15:27.221Z,102031.99
2017-10-15T17:17:55.007Z,102030.41
2017-10-15T17:20:22.587Z,102033.62
2017-10-15T17:22:50.209Z,102039.92
2017-10-15T17:25:17.888Z,102035.95
2017-10-15T17:27:45.564Z,102036.55
2017-10-15T17:30:13.254Z,102034.17
2017-10-15T17:32:40.905Z,102032.02
2017-10-15T17:35:08.627Z,102033.93
2017-10-15T17:37:36.323Z,102035.12
2017-10-15T17:40:04.010Z,102037.42
2017-10-15T17:42:31.681Z,102046.29
2017-10-15T17:44:59.399Z,102040.02
2017-10-15T17:47:27.049Z,102044.83
2017-10-15T17:49:59.619Z,102049.33
2017-10-15T17:52:27.276Z,102039.70
2017-10-15T17:54:54.973Z,102039.84
2017-10-15T17:57:22.634Z,102037.04
2017-10-15T17:59:50.376Z,102039.55
2017-10-15T18:02:26.822Z,102037.00
2017-10-15T18:04:54.522Z,102036.10
2017-10-15T18:07:22.130Z,102037.02
2017-10-15T18:09:49.803Z,102032.88
2017-10-15T18:12:17.461Z,102040.53
2017-10-15T18:14:45.147Z,102038.14
2017-10-15T18:17:13.910Z,102037.21
2017-10-15T18:19:41.612Z,102035.81
2017-10-15T18:22:09.272Z,102037.72
2017-10-15T18:24:36.973Z,102032.17
2017-10-15T18:27:04.622Z,102032.61
2017-10-15T18:29:32.278Z,102027.97
2017-10-15T18:31:59.976Z,102032.23
2017-10-15T18:34:27.634Z,102031.89
2017-10-15T18:36:55.261Z,102026.44
2017-10-15T18:39:22.931Z,102034.43
2017-10-15T18:41:50.650Z,102026.22
2017-10-15T18:44:18.294Z,102026.31
2017-10-15T18:46:46.004Z,102026.27
2017-10-15T18:49:13.681Z,102028.95
2017-10-15T18:51:41.377Z,102033.56
2017-10-15T18:54:09.077Z,102028.76
2017-10-15T18:56:36.797Z,102030.80
2017-10-15T18:59:04.460Z,102027.73
2017-10-15T19:01:32.079Z,102018.34
2017-10-15T19:03:59.742Z,102015.46
2017-10-15T19:06:27.344Z,102016.77
2017-10-15T19:08:55.051Z,102015.64
2017-10-15T19:11:22.728Z,102012.09
2017-10-15T19:13:50.358Z,102007.75
2017-10-15T19:16:17.977Z,102004.67
2017-10-15T19:18:45.679Z,102002.16
2017-10-15T19:21:13.305Z,102003.18
2017-10-15T19:23:40.925Z,101998.20
2017-10-15T19:26:08.514Z,102000.95
2017-10-15T19:28:36.146Z,101998.00
2017-10-15T19:31:03.740Z,101996.84
2017-10-15T19:33:31.354Z,101995.34
2017-10-15T19:35:58.951Z,101997.11
2017-10-15T19:38:27.531Z,101992.17
2017-10-15T19:40:55.172Z,101988.45
2017-10-15T19:43:22.831Z,101993.20
2017-10-15T19:45:50.474Z,101987.31
2017-10-15T19:48:18.068Z,101989.97
2017-10-15T19:50:45.684Z,101985.02
2017-10-15T19:53:13.270Z,101981.83
2017-10-15T19:55:40.952Z,101978.87
2017-10-15T19:58:08.541Z,101976.62
2017-10-15T20:00:36.195Z,101977.81
2017-10-15T20:03:03.838Z,101984.20
2017-10-15T20:05:31.555Z,101975.56
2017-10-15T20:07:59.218Z,101981.12
2017-10-15T20:10:26.847Z,101978.17
2017-10-15T20:12:54.561Z,101984.75
2017-10-15T20:15:22.235Z,101982.19
2017-10-15T20:17:49.915Z,101979.50
2017-10-15T20:20:17.540Z,101982.11
2017-10-15T20:22:45.136Z,101982.31
2017-10-15T20:25:12.821Z,101983.84
2017-10-15T20:27:40.468Z,101987.44
2017-10-15T20:30:08.122Z,101987.80
2017-10-15T20:32:35.780Z,101984.70
2017-10-15T20:35:03.445Z,101985.26
2017-10-15T20:37:31.131Z,101974.33
2017-10-15T20:39:58.774Z,101979.45
2017-10-15T20:42:26.402Z,101973.72
2017-10-15T20:44:54.050Z,101970.52
2017-10-15T20:47:21.756Z,101981.09
2017-10-15T20:49:50.233Z,101969.25
2017-10-15T20:52:17.914Z,101977.12
2017-10-15T20:54:45.491Z,101974.30
2017-10-15T20:57:13.113Z,101975.91
2017-10-15T20:59:40.751Z,101974.45
2017-10-15T21:02:08.464Z,101977.10
2017-10-15T21:04:36.120Z,101969.59
2017-10-15T21:07:03.812Z,101971.97
2017-10-15T21:09:31.461Z,101978.53
2017-10-15T21:11:59.158Z,101973.23
2017-10-15T21:14:26.827Z,101980.56
2017-10-15T21:16:54.458Z,101977.03
2017-10-15T21:19:22.115Z,101977.06
2017-10-15T21:21:49.740Z,101972.25
2017-10-15T21:24:17.396Z,101967.42
2017-10-15T21:26:45.084Z,101963.23
2017-10-15T21:29:12.753Z,101966.55
2017-10-15T21:31:40.407Z,101964.17
2017-10-15T21:34:08.098Z,101965.34
2017-10-15T21:36:35.704Z,101957.75
2017-10-15T21:39:03.412Z,101952.86
2017-10-15T21:41:31.058Z,101958.14
2017-10-15T21:43:58.761Z,101961.92
2017-10-15T21:46:26.408Z,101958.58
2017-10-15T21:48:54.076Z,101956.59
2017-10-15T21:51:21.723Z,101960.66
2017-10-15T21:53:49.409Z,101960.38
2017-10-15T21:56:17.058Z,101958.73
2017-10-15T21:58:44.757Z,101959.31
2017-10-15T22:01:12.350Z,101961.36
2017-10-15T22:03:39.967Z,101961.34
2017-10-15T22:06:07.600Z,101955.80
2017-10-15T22:08:35.236Z,101948.64
2017-10-15T22:11:02.821Z,101959.84
2017-10-15T22:13:30.495Z,101958.86
2017-10-15T22:15:58.176Z,101960.43
2017-10-15T22:18:31.432Z,101961.12
2017-10-15T22:21:04.642Z,101965.01
2017-10-15T22:23:32.326Z,101960.38
2017-10-15T22:25:59.982Z,101955.86
2017-10-15T22:28:27.670Z,101958.39
2017-10-15T22:30:55.350Z,101946.07
2017-10-15T22:33:23.006Z,101950.23
2017-10-15T22:35:50.694Z,101953.62
2017-10-15T22:38:18.351Z,101949.89
2017-10-15T22:40:45.966Z,101939.05
2017-10-15T22:43:13.614Z,101943.90
2017-10-15T22:45:41.286Z,101941.19
2017-10-15T22:48:08.945Z,101935.33
2017-10-15T22:50:36.607Z,101945.00
2017-10-15T22:53:04.209Z,101944.87
2017-10-15T22:55:31.870Z,101939.87
2017-10-15T22:57:59.512Z,101944.63
2017-10-15T23:00:27.194Z,101944.72
2017-10-15T23:02:54.775Z,101945.44
2017-10-15T23:05:22.468Z,101943.19
2017-10-15T23:07:50.110Z,101938.93
2017-10-15T23:10:17.758Z,101939.54
2017-10-15T23:12:45.431Z,101939.48
2017-10-15T23:15:13.071Z,101941.07
2017-10-15T23:17:41.636Z,101938.05
2017-10-15T23:20:09.276Z,101941.97
2017-10-15T23:22:36.944Z,101935.28
2017-10-15T23:25:04.586Z,101940.00
2017-10-15T23:27:32.259Z,101940.48
2017-10-15T23:29:59.918Z,101935.81
2017-10-15T23:32:27.583Z,101938.02
2017-10-15T23:34:55.225Z,101938.19
2017-10-15T23:37:22.915Z,101937.87
2017-10-15T23:39:50.553Z,101932.96
2017-10-15T23:42:18.263Z,101932.68
2017-10-15T23:44:45.918Z,101934.84
2017-10-15T23:47:13.519Z,101934.91
2017-10-15T23:49:41.090Z,101938.27
2017-10-15T23:52:08.703Z,101939.48
2017-10-15T23:54:36.359Z,101935.14
2017-10-15T23:57:04.068Z,101938.65
2017-10-15T23:59:31.699Z,101938.89
